Carmine, Texas
Current Conditions -  °F | °C
As of 1:15 AM on Saturday 20 Dec 2014 (Local Time) from KGYB Reporting Station
Overcast Overcast  
Wind Chill: 46°   Ceiling: 900
Heat Index: 49°   Visibility: 7mi
Dew Point: 47°   Wind: 7mph
Humidity: 91%   Direction: 20°NNE
Pressure: 30.2"   Gusts: NA
Location:  30.15°N, 96.69°W
Report Text: KGYB 200715Z AUTO 02006KT 7SM BKN009 OVC015 10/08 A3020 RMK AO2 T00950081
Loading
Personal Weather Stations






























Interactive Weather Map New forecast layout! Learn more

10-Day Weather Forecast

Advertisements
Track Severe Weather on mobile